Time;durP1;ratioP1;P1;durP2;ratioP2;P2;SDS_P1;SDS_P2;PMS_P1;PMS_P2;Temp;Humidity;BMP_temperature;BMP_pressure;BME280_temperature;BME280_humidity;BME280_pressure;Samples;Min_cycle;Max_cycle;Signal;HPM_P1;HPM_P2
2023/07/09 00:00:54;;;;;;;5.30;3.55;;;;;;;18.56;73.82;100768.25;10483852;28;20040;-73
2023/07/09 00:05:57;;;;;;;7.45;4.20;;;;;;;18.62;73.70;100766.94;10455499;28;20581;-73
2023/07/09 00:10:59;;;;;;;5.47;3.30;;;;;;;18.22;75.22;100767.22;10456445;28;20036;-73
2023/07/09 00:16:09;;;;;;;4.32;3.20;;;;;;;18.42;74.75;100773.22;10470059;28;20044;-73
2023/07/09 00:21:11;;;;;;;3.83;3.03;;;;;;;18.35;74.41;100768.97;10450891;28;20053;-73
2023/07/09 00:26:14;;;;;;;6.28;3.13;;;;;;;18.58;74.14;100768.75;10487335;28;20048;-73
2023/07/09 00:31:17;;;;;;;4.38;3.28;;;;;;;18.30;74.70;100787.78;10466862;28;20087;-73
2023/07/09 00:36:25;;;;;;;5.35;3.47;;;;;;;18.13;75.91;100793.34;10487477;28;20045;-73
2023/07/09 00:41:29;;;;;;;5.40;3.75;;;;;;;18.03;76.46;100777.81;10466401;28;20049;-73
2023/07/09 00:46:31;;;;;;;4.15;3.20;;;;;;;17.87;77.35;100777.50;10456337;28;20033;-73
2023/07/09 00:51:37;;;;;;;6.60;3.40;;;;;;;17.77;78.12;100784.22;10481980;28;20040;-73
2023/07/09 00:56:42;;;;;;;5.88;3.15;;;;;;;17.88;77.84;100792.22;10491478;28;20064;-73
2023/07/09 01:01:50;;;;;;;5.53;2.85;;;;;;;17.84;78.49;100791.22;10490162;28;20607;-73
2023/07/09 01:06:54;;;;;;;4.22;2.95;;;;;;;17.94;78.32;100788.13;10477255;28;20043;-73
2023/07/09 01:12:01;;;;;;;4.45;3.05;;;;;;;17.48;79.87;100795.06;10488605;28;20406;-73
2023/07/09 01:17:05;;;;;;;8.55;4.35;;;;;;;17.20;81.56;100797.31;10472624;28;20057;-73
2023/07/09 01:22:07;;;;;;;8.07;4.13;;;;;;;17.20;81.86;100799.28;10448556;28;20052;-73
2023/07/09 01:27:09;;;;;;;4.63;3.50;;;;;;;16.98;81.10;100814.00;10477101;28;20053;-73
2023/07/09 01:32:13;;;;;;;5.55;3.40;;;;;;;16.69;81.23;100806.22;10458054;28;20048;-73
2023/07/09 01:37:18;;;;;;;6.22;3.10;;;;;;;16.86;81.24;100801.59;10466742;28;20041;-73
2023/07/09 01:42:22;;;;;;;4.65;2.90;;;;;;;16.86;78.85;100806.31;10482001;28;20037;-73
2023/07/09 01:47:24;;;;;;;2.97;2.53;;;;;;;16.39;79.29;100802.28;10489721;28;20064;-73
2023/07/09 01:52:29;;;;;;;3.67;2.75;;;;;;;16.00;80.42;100802.97;10487838;28;20048;-73
2023/07/09 01:57:34;;;;;;;6.15;3.63;;;;;;;15.89;81.91;100794.91;10454915;28;20029;-73
2023/07/09 02:02:38;;;;;;;4.63;2.72;;;;;;;16.09;81.02;100817.69;10470080;28;20034;-73
2023/07/09 02:07:40;;;;;;;3.22;2.92;;;;;;;16.04;80.99;100812.28;10485620;28;20045;-73
2023/07/09 02:12:43;;;;;;;4.78;3.65;;;;;;;15.67;81.11;100819.78;10482116;28;20048;-73
2023/07/09 02:17:46;;;;;;;4.10;3.35;;;;;;;15.45;81.87;100828.81;10452583;28;20049;-73
2023/07/09 02:22:50;;;;;;;4.30;3.22;;;;;;;15.61;82.36;100832.88;10470780;28;20052;-73
2023/07/09 02:27:52;;;;;;;5.60;3.40;;;;;;;15.67;80.71;100844.66;10437122;28;20762;-73
2023/07/09 02:32:54;;;;;;;5.25;3.72;;;;;;;15.44;80.41;100854.78;10487786;28;20048;-73
2023/07/09 02:37:56;;;;;;;5.15;3.72;;;;;;;15.26;80.52;100864.81;10485628;28;20495;-73
2023/07/09 02:42:58;;;;;;;6.50;2.72;;;;;;;15.12;80.43;100864.03;10469268;28;20056;-73
2023/07/09 02:48:01;;;;;;;4.53;3.28;;;;;;;14.85;80.99;100864.81;10468666;28;20035;-73
2023/07/09 02:53:05;;;;;;;4.32;3.15;;;;;;;14.69;82.45;100863.44;10469765;28;20045;-73
2023/07/09 02:58:08;;;;;;;5.55;3.65;;;;;;;14.50;83.14;100868.19;10451037;28;20072;-73
2023/07/09 03:03:10;;;;;;;7.22;3.90;;;;;;;14.26;83.96;100874.63;10422547;28;20045;-73
2023/07/09 03:08:12;;;;;;;7.60;4.30;;;;;;;14.29;84.82;100870.44;10460262;28;20051;-73
2023/07/09 03:13:14;;;;;;;6.32;3.83;;;;;;;14.54;84.43;100881.09;10462297;28;20432;-73
2023/07/09 03:18:16;;;;;;;7.38;4.35;;;;;;;14.26;85.05;100882.91;10476533;28;20041;-73
2023/07/09 03:23:18;;;;;;;8.18;4.43;;;;;;;14.27;85.85;100884.53;10452481;28;20053;-73
2023/07/09 03:28:21;;;;;;;7.28;4.70;;;;;;;14.29;86.34;100878.72;10475496;28;20052;-73
2023/07/09 03:33:24;;;;;;;7.70;4.40;;;;;;;14.47;86.39;100892.53;10467159;28;20503;-73
2023/07/09 03:38:27;;;;;;;9.35;4.22;;;;;;;14.55;86.67;100896.53;10483702;28;20136;-73
2023/07/09 03:43:29;;;;;;;6.97;3.78;;;;;;;14.54;86.36;100894.88;10452011;28;20037;-73
2023/07/09 03:48:32;;;;;;;7.13;3.90;;;;;;;14.62;86.69;100893.41;10483940;28;20044;-73
2023/07/09 03:53:34;;;;;;;6.53;3.30;;;;;;;14.75;86.66;100892.59;10478609;28;20056;-73
2023/07/09 03:58:36;;;;;;;4.22;3.25;;;;;;;14.77;86.83;100895.91;10484107;28;20095;-73
2023/07/09 04:03:38;;;;;;;9.50;3.80;;;;;;;14.65;86.84;100888.09;10477298;28;20131;-73
2023/07/09 04:08:40;;;;;;;5.03;2.80;;;;;;;14.65;87.33;100895.56;10446296;28;20418;-73
2023/07/09 04:13:43;;;;;;;2.72;2.17;;;;;;;14.71;87.37;100891.56;10483673;28;20052;-73
2023/07/09 04:18:45;;;;;;;4.38;2.72;;;;;;;14.81;87.11;100907.16;10482079;28;20048;-73
2023/07/09 04:23:47;;;;;;;4.53;2.22;;;;;;;14.72;87.07;100894.03;10483695;28;20045;-73
2023/07/09 04:28:49;;;;;;;5.03;2.83;;;;;;;14.69;87.88;100908.44;10475811;28;20036;-73
2023/07/09 04:33:52;;;;;;;5.70;2.00;;;;;;;14.66;88.36;100908.25;10483940;28;20045;-72
2023/07/09 04:38:54;;;;;;;1.70;1.50;;;;;;;14.70;87.93;100912.84;10473169;28;20559;-73
2023/07/09 04:43:57;;;;;;;4.22;2.50;;;;;;;14.61;88.19;100911.91;10480480;28;20529;-73
2023/07/09 04:49:00;;;;;;;2.67;2.00;;;;;;;14.69;87.37;100922.25;10481862;28;20045;-73
2023/07/09 04:54:03;;;;;;;2.72;2.17;;;;;;;14.70;87.63;100926.66;10482497;28;20044;-73
2023/07/09 04:59:05;;;;;;;2.28;1.48;;;;;;;14.88;86.52;100924.16;10482455;28;20434;-73
2023/07/09 05:04:08;;;;;;;4.38;1.85;;;;;;;14.89;85.71;100925.78;10484359;28;20411;-73
2023/07/09 05:09:10;;;;;;;2.47;2.22;;;;;;;15.08;85.35;100930.13;10443100;28;20048;-73
2023/07/09 05:14:12;;;;;;;2.70;1.95;;;;;;;15.06;84.02;100937.09;10490863;28;20068;-73
2023/07/09 05:19:14;;;;;;;2.53;2.10;;;;;;;15.07;84.03;100938.72;10477280;28;20048;-73
2023/07/09 05:24:17;;;;;;;2.40;1.80;;;;;;;14.88;83.76;100951.78;10480638;28;20045;-73
2023/07/09 05:29:19;;;;;;;2.70;2.20;;;;;;;14.85;84.35;100946.88;10485887;28;20064;-73
2023/07/09 05:34:22;;;;;;;2.55;2.00;;;;;;;14.95;83.96;100961.34;10459278;28;20041;-73
2023/07/09 05:39:24;;;;;;;2.72;1.83;;;;;;;15.12;83.13;100974.59;10455270;28;20380;-72
2023/07/09 05:44:26;;;;;;;1.73;1.10;;;;;;;15.22;83.00;100962.50;10466772;28;20492;-72
2023/07/09 05:49:28;;;;;;;1.58;1.40;;;;;;;15.41;82.21;100959.69;10484029;28;20052;-73
2023/07/09 05:54:31;;;;;;;1.85;1.00;;;;;;;15.75;80.64;100968.44;10486432;28;20045;-73
2023/07/09 05:59:33;;;;;;;3.90;2.05;;;;;;;15.80;79.83;100979.41;10460142;28;20415;-73
2023/07/09 06:04:35;;;;;;;1.17;0.80;;;;;;;15.47;80.39;100978.66;10487478;28;20037;-73
2023/07/09 06:09:37;;;;;;;1.52;1.38;;;;;;;15.31;80.42;100978.09;10487788;28;20060;-73
2023/07/09 06:14:40;;;;;;;1.65;1.40;;;;;;;15.36;80.16;100983.53;10463918;28;20033;-73
2023/07/09 06:19:43;;;;;;;1.58;1.27;;;;;;;15.14;81.03;100997.22;10487760;28;20047;-73
2023/07/09 06:24:45;;;;;;;1.15;1.05;;;;;;;14.93;81.46;100998.69;10485867;28;20049;-74
2023/07/09 06:29:48;;;;;;;1.33;1.10;;;;;;;14.70;82.72;101011.47;10469252;28;20044;-73
2023/07/09 06:34:50;;;;;;;0.60;0.60;;;;;;;14.64;83.36;101007.97;10487316;28;20037;-73
2023/07/09 06:39:52;;;;;;;0.60;0.60;;;;;;;14.52;83.51;101004.84;10486474;28;20052;-73
2023/07/09 06:44:54;;;;;;;2.80;1.45;;;;;;;14.43;84.08;101006.59;10485301;28;20036;-73
2023/07/09 06:49:57;;;;;;;2.70;1.02;;;;;;;14.45;83.84;101027.31;10484410;28;20040;-73
2023/07/09 06:54:59;;;;;;;1.70;0.40;;;;;;;14.40;83.45;101035.59;10485839;28;20040;-73
2023/07/09 07:00:07;;;;;;;0.98;0.73;;;;;;;14.36;83.44;101040.09;10479120;28;20049;-74
2023/07/09 07:05:09;;;;;;;0.30;0.22;;;;;;;14.24;84.24;101041.66;10469533;28;20064;-73
2023/07/09 07:10:11;;;;;;;0.43;0.40;;;;;;;14.21;84.38;101039.47;10452654;28;20420;-73
2023/07/09 07:15:16;;;;;;;1.90;0.60;;;;;;;14.17;85.15;101050.28;10437000;28;20033;-73
2023/07/09 07:20:18;;;;;;;0.50;0.50;;;;;;;13.93;84.44;101058.56;10462747;28;20473;-73
2023/07/09 07:25:21;;;;;;;1.45;0.70;;;;;;;13.97;84.39;101059.63;10457222;28;20530;-73
2023/07/09 07:30:23;;;;;;;0.68;0.40;;;;;;;13.99;83.76;101068.44;10476772;28;20588;-74
2023/07/09 07:35:26;;;;;;;1.92;0.90;;;;;;;13.97;82.77;101075.34;10467030;28;20044;-73
2023/07/09 07:40:28;;;;;;;0.75;0.52;;;;;;;13.88;83.99;101081.53;10484643;28;20186;-74
2023/07/09 07:45:30;;;;;;;0.73;0.25;;;;;;;13.59;84.82;101089.00;10480064;28;20562;-72
2023/07/09 07:50:32;;;;;;;1.67;0.80;;;;;;;13.46;84.36;101081.38;10460814;28;20044;-72
2023/07/09 07:55:36;;;;;;;4.72;1.02;;;;;;;13.44;84.69;101083.63;10449454;28;20419;-71
2023/07/09 08:00:40;;;;;;;1.65;0.73;;;;;;;13.45;84.16;101091.59;10467077;28;20537;-73
2023/07/09 08:05:42;;;;;;;0.93;0.68;;;;;;;13.42;84.06;101094.94;10479413;28;20037;-73
2023/07/09 08:10:44;;;;;;;1.00;0.77;;;;;;;13.36;83.35;101100.75;10479295;28;20045;-72
2023/07/09 08:15:46;;;;;;;3.05;1.15;;;;;;;13.49;82.69;101102.88;10466377;28;20033;-72
2023/07/09 08:20:49;;;;;;;15.60;1.50;;;;;;;13.58;82.48;101099.22;10471926;28;20034;-72
2023/07/09 08:25:58;;;;;;;1.33;0.95;;;;;;;13.64;81.47;101121.22;10470575;28;20140;-71
2023/07/09 08:31:00;;;;;;;1.15;0.80;;;;;;;13.60;82.10;101109.94;10449963;28;20036;-71
2023/07/09 08:36:03;;;;;;;1.52;1.08;;;;;;;13.79;80.96;101108.09;10470281;28;20048;-71
2023/07/09 08:41:14;;;;;;;2.03;1.38;;;;;;;13.91;80.32;101121.50;10467067;28;20503;-72
2023/07/09 08:46:27;;;;;;;1.38;0.77;;;;;;;13.94;79.60;101120.91;10458018;28;20041;-72
2023/07/09 08:51:36;;;;;;;1.92;1.30;;;;;;;13.75;80.50;101122.78;10485680;28;20053;-72
2023/07/09 08:56:38;;;;;;;0.80;0.80;;;;;;;13.63;80.18;101125.06;10459816;28;20043;-71
2023/07/09 09:01:50;;;;;;;1.35;0.52;;;;;;;13.79;79.48;101134.84;10437714;28;20037;-72
2023/07/09 09:07:20;;;;;;;1.08;0.82;;;;;;;13.72;79.14;101145.41;10477770;28;20048;-74
2023/07/09 09:12:26;;;;;;;1.52;0.90;;;;;;;13.58;79.35;101157.09;10437413;28;20061;-71
2023/07/09 09:17:29;;;;;;;3.65;1.13;;;;;;;13.39;79.87;101169.94;10460539;28;20444;-72
2023/07/09 09:22:43;;;;;;;2.08;1.52;;;;;;;13.17;80.46;101150.22;10474428;28;20036;-72
2023/07/09 09:27:45;;;;;;;3.25;0.77;;;;;;;13.21;81.10;101159.59;10466886;28;20060;-72
2023/07/09 09:32:53;;;;;;;5.60;1.42;;;;;;;13.31;80.84;101170.53;10473767;28;20037;-71
2023/07/09 09:37:57;;;;;;;2.63;1.30;;;;;;;13.33;79.65;101173.00;10451991;28;20077;-72
2023/07/09 09:43:00;;;;;;;1.63;1.45;;;;;;;13.23;79.84;101173.91;10456216;28;20040;-72
2023/07/09 09:48:14;;;;;;;1.63;1.25;;;;;;;13.19;79.92;101170.06;10473728;28;20060;-73
2023/07/09 09:53:24;;;;;;;1.67;1.30;;;;;;;13.21;79.67;101184.41;10480086;28;20045;-73
2023/07/09 09:58:30;;;;;;;2.65;1.10;;;;;;;13.21;79.14;101179.72;10463724;28;20049;-73
2023/07/09 10:03:37;;;;;;;4.80;1.00;;;;;;;13.37;78.50;101183.19;10472919;28;20418;-72
2023/07/09 10:08:56;;;;;;;1.17;0.75;;;;;;;13.28;77.93;101196.75;10474741;28;20060;-73
2023/07/09 10:14:03;;;;;;;1.75;1.20;;;;;;;13.31;76.72;101187.09;10464512;28;20416;-72
2023/07/09 10:19:31;;;;;;;1.77;0.80;;;;;;;13.40;76.30;101201.09;10470924;28;20448;-71
2023/07/09 10:24:54;;;;;;;1.90;0.90;;;;;;;13.49;76.51;101202.94;10474028;28;20457;-72
2023/07/09 10:29:56;;;;;;;0.80;0.70;;;;;;;13.77;74.84;101206.88;10463774;28;20041;-73
2023/07/09 10:35:22;;;;;;;0.90;0.90;;;;;;;14.16;72.12;101214.25;10482644;28;20037;-72
2023/07/09 10:40:35;;;;;;;0.75;0.75;;;;;;;14.39;70.55;101215.38;10473661;28;20040;-72
2023/07/09 10:45:41;;;;;;;1.38;1.13;;;;;;;14.23;71.06;101223.00;10455212;28;20052;-73
2023/07/09 10:50:48;;;;;;;1.08;0.80;;;;;;;14.14;70.98;101231.09;10473830;28;20041;-75
2023/07/09 10:55:55;;;;;;;2.17;0.98;;;;;;;14.09;70.75;101235.84;10463853;28;20033;-73
2023/07/09 11:00:58;;;;;;;1.63;0.73;;;;;;;13.94;70.42;101238.75;10482347;28;20045;-71
2023/07/09 11:06:00;;;;;;;1.17;0.80;;;;;;;13.52;71.18;101238.19;10468860;28;20045;-72
2023/07/09 11:11:10;;;;;;;0.82;0.70;;;;;;;13.68;69.80;101243.63;10486385;28;20057;-72
2023/07/09 11:16:16;;;;;;;1.63;1.00;;;;;;;13.92;69.14;101238.19;10465234;28;20383;-72
2023/07/09 11:21:18;;;;;;;0.73;0.68;;;;;;;13.94;68.61;101239.56;10467494;28;20052;-72
2023/07/09 11:26:26;;;;;;;2.13;1.00;;;;;;;14.07;69.08;101238.06;10472854;28;20049;-74
2023/07/09 11:31:40;;;;;;;1.15;0.73;;;;;;;14.22;67.75;101248.94;10476303;28;20048;-74
2023/07/09 11:36:59;;;;;;;0.60;0.50;;;;;;;14.21;67.24;101243.72;10485671;28;20574;-74
2023/07/09 11:42:01;;;;;;;2.10;0.88;;;;;;;14.15;66.51;101251.22;10449611;28;20128;-74
2023/07/09 11:47:28;;;;;;;0.90;0.52;;;;;;;14.10;66.59;101241.06;10485176;28;20044;-74
2023/07/09 11:52:36;;;;;;;4.03;0.80;;;;;;;14.03;67.15;101261.81;10485180;28;20052;-74
2023/07/09 11:57:38;;;;;;;1.63;0.68;;;;;;;13.82;67.78;101252.88;10467355;28;20064;-74
2023/07/09 12:02:41;;;;;;;1.45;0.70;;;;;;;14.16;66.61;101250.13;10475709;28;20052;-74
2023/07/09 12:07:43;;;;;;;0.80;0.60;;;;;;;14.45;64.18;101250.16;10484796;28;20056;-74
2023/07/09 12:12:46;;;;;;;1.27;0.98;;;;;;;14.41;64.14;101257.34;10492410;28;20049;-74
2023/07/09 12:18:14;;;;;;;0.85;0.68;;;;;;;13.99;65.09;101252.47;10494975;28;20048;-74
2023/07/09 12:23:22;;;;;;;0.77;0.50;;;;;;;13.98;66.90;101257.16;10478125;28;20422;-74
2023/07/09 12:28:25;;;;;;;0.68;0.57;;;;;;;14.32;65.70;101257.13;10468370;28;20061;-74
2023/07/09 12:33:28;;;;;;;1.17;0.50;;;;;;;14.24;65.08;101265.25;10476100;28;20380;-74
2023/07/09 12:38:41;;;;;;;2.35;0.85;;;;;;;14.11;64.71;101256.50;10494072;28;20510;-74
2023/07/09 12:43:44;;;;;;;0.68;0.68;;;;;;;14.02;64.75;101261.00;10480516;28;20075;-75
2023/07/09 12:48:50;;;;;;;1.58;0.88;;;;;;;13.92;65.03;101257.50;10480428;28;20048;-74
2023/07/09 12:54:12;;;;;;;0.90;0.70;;;;;;;13.97;63.68;101269.31;10497717;28;20056;-75
2023/07/09 12:59:22;;;;;;;0.55;0.35;;;;;;;14.19;62.79;101263.34;10478285;28;20049;-75
2023/07/09 13:04:31;;;;;;;2.25;0.93;;;;;;;14.24;63.54;101285.38;10484047;28;20070;-74
2023/07/09 13:09:34;;;;;;;0.98;0.77;;;;;;;14.27;62.50;101273.75;10497398;28;20536;-73
2023/07/09 13:14:36;;;;;;;2.22;0.80;;;;;;;14.28;62.73;101269.88;10480059;28;20037;-74
2023/07/09 13:19:39;;;;;;;2.38;0.85;;;;;;;14.31;62.30;101279.53;10494093;28;20044;-74
2023/07/09 13:24:41;;;;;;;1.55;0.60;;;;;;;14.20;60.89;101273.25;10453663;28;20041;-74
2023/07/09 13:29:43;;;;;;;1.30;0.75;;;;;;;14.48;60.04;101286.28;10457263;28;20052;-74
2023/07/09 13:34:46;;;;;;;0.52;0.50;;;;;;;14.56;60.09;101287.56;10465847;28;20041;-74
2023/07/09 13:39:48;;;;;;;2.40;0.70;;;;;;;14.29;61.07;101287.28;10483989;28;20609;-74
2023/07/09 13:44:50;;;;;;;3.72;0.63;;;;;;;14.34;61.42;101277.00;10483218;28;20059;-74
2023/07/09 13:49:53;;;;;;;0.60;0.60;;;;;;;14.59;59.98;101287.00;10486269;28;20052;-74
2023/07/09 13:54:55;;;;;;;1.60;0.50;;;;;;;14.60;59.40;101302.47;10489765;28;20049;-74
2023/07/09 13:59:57;;;;;;;1.55;0.65;;;;;;;14.27;59.87;101284.81;10489000;28;20052;-74
2023/07/09 14:05:01;;;;;;;1.83;0.80;;;;;;;14.34;60.03;101282.53;10457345;28;20037;-74
2023/07/09 14:10:06;;;;;;;1.33;0.70;;;;;;;14.57;59.40;101285.63;10460091;28;20049;-74
2023/07/09 14:15:18;;;;;;;1.25;0.88;;;;;;;14.57;60.00;101294.75;10470933;28;20411;-74
2023/07/09 14:20:21;;;;;;;1.10;0.90;;;;;;;14.35;60.97;101297.16;10452624;28;20040;-74
2023/07/09 14:25:25;;;;;;;1.45;0.80;;;;;;;14.16;59.72;101306.13;10482568;28;20053;-74
2023/07/09 14:30:27;;;;;;;2.22;1.08;;;;;;;14.08;59.72;101309.53;10456236;28;20060;-74
2023/07/09 14:35:29;;;;;;;2.47;0.52;;;;;;;14.07;58.99;101310.66;10487682;28;20083;-74
2023/07/09 14:40:31;;;;;;;0.77;0.60;;;;;;;14.21;59.37;101296.16;10470108;28;20053;-74
2023/07/09 14:45:34;;;;;;;1.30;0.80;;;;;;;14.32;58.18;101312.34;10465016;28;20033;-74
2023/07/09 14:50:37;;;;;;;1.95;0.75;;;;;;;14.24;57.30;101310.22;10470063;28;20414;-73
2023/07/09 14:55:39;;;;;;;0.60;0.52;;;;;;;14.14;58.23;101313.06;10487028;28;20041;-74
2023/07/09 15:00:43;;;;;;;1.00;0.60;;;;;;;14.28;57.12;101313.22;10485923;28;20048;-74
2023/07/09 15:05:46;;;;;;;1.55;0.80;;;;;;;14.31;57.22;101313.47;10487037;28;20040;-74
2023/07/09 15:10:50;;;;;;;0.98;0.80;;;;;;;14.38;56.68;101335.22;10469423;28;20040;-74
2023/07/09 15:15:52;;;;;;;3.33;0.52;;;;;;;14.39;55.66;101312.84;10467531;28;20059;-75
2023/07/09 15:20:59;;;;;;;0.30;0.30;;;;;;;14.22;55.93;101328.16;10465633;28;20596;-74
2023/07/09 15:26:01;;;;;;;;;;;;;;;14.13;57.02;101322.47;10486883;28;20050;-74
2023/07/09 15:31:05;;;;;;;0.65;0.65;;;;;;;13.96;57.09;101320.09;10485401;28;19920;-74
2023/07/09 15:36:10;;;;;;;1.63;0.50;;;;;;;13.87;57.03;101330.09;10468137;28;20045;-74
2023/07/09 15:41:13;;;;;;;1.52;0.88;;;;;;;13.86;56.62;101326.50;10468823;28;20041;-74
2023/07/09 15:46:21;;;;;;;4.03;0.90;;;;;;;13.95;56.90;101323.16;10483711;28;20049;-74
2023/07/09 15:51:23;;;;;;;2.08;0.57;;;;;;;13.88;57.21;101317.94;10486160;28;20037;-74
2023/07/09 15:56:29;;;;;;;1.10;0.68;;;;;;;13.81;57.77;101314.69;10464208;28;20057;-73
2023/07/09 16:01:31;;;;;;;0.90;0.70;;;;;;;13.70;57.64;101313.91;10477829;28;20029;-74
2023/07/09 16:06:35;;;;;;;0.20;0.20;;;;;;;13.69;57.91;101319.72;10482831;28;20041;-74
2023/07/09 16:11:38;;;;;;;1.42;0.70;;;;;;;13.77;57.57;101324.66;10479836;28;20037;-74
2023/07/09 16:16:40;;;;;;;1.73;0.90;;;;;;;13.91;57.64;101322.09;10460128;28;20415;-74
2023/07/09 16:21:43;;;;;;;1.27;0.60;;;;;;;13.98;57.03;101314.28;10454031;28;20049;-74
2023/07/09 16:26:45;;;;;;;2.30;0.90;;;;;;;14.08;57.76;101319.75;10452978;28;20049;-74
2023/07/09 16:31:47;;;;;;;3.15;0.90;;;;;;;14.25;57.05;101316.56;10472641;28;20048;-74
2023/07/09 16:36:50;;;;;;;2.08;1.00;;;;;;;14.16;56.51;101338.44;10483939;28;20647;-74
2023/07/09 16:41:53;;;;;;;0.43;0.40;;;;;;;13.94;57.12;101319.56;10465943;28;20499;-74
2023/07/09 16:46:55;;;;;;;1.13;0.63;;;;;;;13.82;56.94;101335.66;10474965;28;20037;-74
2023/07/09 16:51:58;;;;;;;0.88;0.80;;;;;;;13.72;56.48;101338.50;10454067;28;20049;-75
2023/07/09 16:57:01;;;;;;;0.73;0.73;;;;;;;13.70;57.40;101326.88;10471064;28;20037;-74
2023/07/09 17:02:29;;;;;;;0.73;0.73;;;;;;;13.65;57.45;101332.44;10474498;28;20081;-75
2023/07/09 17:07:33;;;;;;;1.35;0.60;;;;;;;13.60;58.16;101330.56;10480368;28;20538;-74
2023/07/09 17:12:35;;;;;;;1.45;0.60;;;;;;;13.47;57.49;101332.00;10486789;28;20048;-77
2023/07/09 17:17:37;;;;;;;0.73;0.68;;;;;;;13.43;57.75;101332.84;10460038;28;20056;-77
2023/07/09 17:22:39;;;;;;;2.15;0.70;;;;;;;13.38;57.76;101333.69;10464002;28;20065;-77
2023/07/09 17:27:42;;;;;;;1.88;0.73;;;;;;;13.29;57.79;101335.38;10482408;28;20048;-76
2023/07/09 17:32:44;;;;;;;0.60;0.60;;;;;;;13.27;58.21;101343.13;10482727;28;20041;-75
2023/07/09 17:37:51;;;;;;;0.98;0.60;;;;;;;13.21;58.42;101336.81;10485064;28;20037;-75
2023/07/09 17:42:55;;;;;;;0.95;0.47;;;;;;;13.15;58.89;101345.31;10484013;28;20041;-75
2023/07/09 17:47:57;;;;;;;1.75;1.00;;;;;;;13.14;58.81;101351.94;10465127;28;20113;-75
2023/07/09 17:53:00;;;;;;;1.10;0.90;;;;;;;13.11;59.16;101347.00;10478978;28;20052;-78
2023/07/09 17:58:02;;;;;;;2.60;0.70;;;;;;;13.13;59.02;101345.59;10477365;28;20029;-76
2023/07/09 18:03:11;;;;;;;2.15;0.88;;;;;;;13.13;60.36;101347.53;10477801;28;20051;-75
2023/07/09 18:08:13;;;;;;;0.52;0.52;;;;;;;13.06;60.40;101341.50;10472814;28;20059;-78
2023/07/09 18:13:22;;;;;;;1.60;0.60;;;;;;;13.08;60.96;101350.31;10483026;28;20523;-77
2023/07/09 18:18:24;;;;;;;1.00;0.68;;;;;;;12.95;61.19;101346.22;10460327;28;20037;-77
2023/07/09 18:23:27;;;;;;;0.60;0.55;;;;;;;12.90;61.25;101343.50;10484025;28;20049;-78
2023/07/09 18:28:31;;;;;;;1.10;0.73;;;;;;;12.87;61.53;101339.38;10455193;28;20045;-77
2023/07/09 18:33:33;;;;;;;1.60;0.82;;;;;;;12.92;61.38;101344.84;10470654;28;20033;-78
2023/07/09 18:38:36;;;;;;;2.28;1.20;;;;;;;12.90;61.56;101343.50;10459779;28;20053;-77
2023/07/09 18:43:39;;;;;;;2.13;1.10;;;;;;;12.79;61.86;101350.94;10481402;28;20407;-78
2023/07/09 18:48:41;;;;;;;0.60;0.40;;;;;;;12.78;62.47;101352.03;10485428;28;20037;-79
2023/07/09 18:53:43;;;;;;;0.50;0.50;;;;;;;12.77;62.67;101352.31;10478586;28;20053;-78
2023/07/09 18:58:46;;;;;;;1.60;0.68;;;;;;;12.77;63.50;101344.88;10487273;28;20522;-78
2023/07/09 19:03:48;;;;;;;1.83;0.90;;;;;;;12.68;63.40;101347.41;10478376;28;20042;-78
2023/07/09 19:08:50;;;;;;;1.30;0.90;;;;;;;12.64;63.36;101349.03;10453286;28;20036;-79
2023/07/09 19:13:53;;;;;;;1.02;0.90;;;;;;;12.63;64.30;101343.81;10469893;28;20415;-81
2023/07/09 19:18:55;;;;;;;0.75;0.70;;;;;;;12.62;64.42;101340.22;10483747;28;20037;-80
2023/07/09 19:23:59;;;;;;;0.70;0.70;;;;;;;12.60;64.79;101349.88;10468110;28;20049;-79
2023/07/09 19:29:04;;;;;;;2.03;1.00;;;;;;;12.64;64.50;101345.44;10467580;28;20059;-76
2023/07/09 19:34:11;;;;;;;2.05;1.10;;;;;;;12.73;64.06;101337.47;10459854;28;20419;-75
2023/07/09 19:39:25;;;;;;;1.80;1.33;;;;;;;12.65;64.37;101342.41;10460711;28;20052;-76
2023/07/09 19:44:27;;;;;;;1.95;1.15;;;;;;;12.75;64.46;101343.50;10477396;28;20044;-76
2023/07/09 19:49:30;;;;;;;2.47;0.90;;;;;;;12.91;63.79;101347.88;10467380;28;20415;-75
2023/07/09 19:54:32;;;;;;;1.45;1.10;;;;;;;12.91;64.46;101348.72;10432139;28;20041;-76
2023/07/09 19:59:34;;;;;;;2.72;1.33;;;;;;;12.83;64.41;101338.25;10467117;28;20045;-77
2023/07/09 20:04:36;;;;;;;3.22;1.60;;;;;;;12.68;64.83;101344.63;10467340;28;20045;-81
2023/07/09 20:09:39;;;;;;;1.45;1.20;;;;;;;12.70;64.17;101355.38;10474459;28;20071;-81
2023/07/09 20:14:41;;;;;;;2.20;1.20;;;;;;;12.58;64.53;101341.06;10455165;28;20115;-78
2023/07/09 20:19:44;;;;;;;2.88;1.33;;;;;;;12.63;65.04;101350.13;10458673;28;20045;-80
2023/07/09 20:24:46;;;;;;;1.30;1.00;;;;;;;12.52;65.59;101345.75;10478860;28;20037;-77
2023/07/09 20:29:48;;;;;;;1.52;1.20;;;;;;;12.46;65.77;101346.03;10451897;28;20147;-77
2023/07/09 20:34:54;;;;;;;1.55;1.30;;;;;;;12.42;66.33;101336.69;10488064;28;20052;-75
2023/07/09 20:39:56;;;;;;;1.52;1.10;;;;;;;12.50;65.62;101344.41;10464474;28;20052;-76
2023/07/09 20:44:58;;;;;;;1.73;1.33;;;;;;;12.34;66.34;101355.41;10475781;28;20056;-78
2023/07/09 20:50:00;;;;;;;3.75;1.52;;;;;;;12.29;67.19;101352.63;10469721;28;20052;-78
2023/07/09 20:55:03;;;;;;;3.58;1.70;;;;;;;12.27;66.47;101359.50;10491693;28;20052;-78
2023/07/09 21:00:12;;;;;;;2.78;1.25;;;;;;;12.04;67.37;101360.88;10492418;28;20041;-78
2023/07/09 21:05:16;;;;;;;1.98;1.08;;;;;;;12.07;67.55;101352.91;10487563;28;20053;-92
2023/07/09 21:10:21;;;;;;;2.97;1.52;;;;;;;11.90;67.68;101354.25;10494467;28;20045;-84
2023/07/09 21:15:25;;;;;;;1.73;1.25;;;;;;;11.87;68.13;101352.88;10490728;28;20037;-83
2023/07/09 21:20:28;;;;;;;1.45;1.10;;;;;;;11.81;67.75;101358.66;10450499;28;20172;-81
2023/07/09 21:25:30;;;;;;;1.30;1.13;;;;;;;11.69;68.69;101365.19;10479457;28;20056;-85
2023/07/09 21:30:32;;;;;;;1.00;0.90;;;;;;;11.72;68.97;101370.13;10492075;28;20045;-83
2023/07/09 21:35:34;;;;;;;1.52;1.02;;;;;;;11.64;68.17;101358.84;10468377;28;20048;-78
2023/07/09 21:40:37;;;;;;;3.35;1.20;;;;;;;11.60;68.08;101355.78;10473042;28;20037;-78
2023/07/09 21:45:41;;;;;;;1.35;1.08;;;;;;;11.49;68.96;101354.13;10474875;28;20042;-78
2023/07/09 21:50:43;;;;;;;2.05;1.20;;;;;;;11.43;69.67;101355.19;10470260;28;20132;-77
2023/07/09 21:55:45;;;;;;;1.30;1.20;;;;;;;11.36;70.52;101362.88;10485809;28;20040;-77
2023/07/09 22:00:47;;;;;;;1.80;1.40;;;;;;;11.31;70.30;101362.84;10468301;28;20443;-77
2023/07/09 22:05:49;;;;;;;1.67;1.25;;;;;;;11.27;70.91;101362.53;10454742;28;20053;-76
2023/07/09 22:10:52;;;;;;;1.65;1.30;;;;;;;11.25;71.15;101366.66;10464651;28;20051;-76
2023/07/09 22:15:54;;;;;;;1.85;1.35;;;;;;;11.26;71.05;101365.56;10475579;28;20056;-75
2023/07/09 22:20:56;;;;;;;1.98;1.40;;;;;;;11.25;71.13;101372.16;10479251;28;20243;-78
2023/07/09 22:25:58;;;;;;;1.95;1.33;;;;;;;11.23;71.23;101371.59;10465532;28;20057;-76
2023/07/09 22:31:03;;;;;;;1.52;1.13;;;;;;;11.10;71.75;101384.72;10485194;28;20057;-78
2023/07/09 22:36:08;;;;;;;2.40;1.13;;;;;;;11.08;72.36;101377.84;10470226;28;20044;-77
2023/07/09 22:41:10;;;;;;;3.75;1.17;;;;;;;11.23;72.37;101371.59;10448772;28;20040;-76
2023/07/09 22:46:15;;;;;;;1.15;1.00;;;;;;;11.33;71.78;101377.16;10482636;28;20037;-77
2023/07/09 22:51:17;;;;;;;1.25;1.10;;;;;;;11.47;71.55;101372.81;10455377;28;20049;-77
2023/07/09 22:56:20;;;;;;;1.63;1.10;;;;;;;11.43;72.15;101371.69;10454744;28;20041;-77
2023/07/09 23:01:22;;;;;;;3.00;1.05;;;;;;;11.25;72.19;101370.22;10476676;28;20052;-77
2023/07/09 23:06:26;;;;;;;1.15;1.00;;;;;;;11.11;72.70;101371.84;10480282;28;20051;-77
2023/07/09 23:11:30;;;;;;;1.92;1.30;;;;;;;10.96;73.33;101361.59;10468210;28;20047;-77
2023/07/09 23:16:33;;;;;;;1.65;1.10;;;;;;;10.98;73.73;101362.16;10485273;28;20052;-77